createdAt,value
2022-12-08T00:00:23.309Z,99922.34
2022-12-08T00:05:43.499Z,99926.06
2022-12-08T00:10:49.957Z,99923.03
2022-12-08T00:15:51.711Z,99929.75
2022-12-08T00:20:57.693Z,99916.66
2022-12-08T00:26:06.199Z,99921.53
2022-12-08T00:31:09.923Z,99917.50
2022-12-08T00:36:13.865Z,99907.22
2022-12-08T00:41:18.427Z,99910.28
2022-12-08T00:46:20.170Z,99909.28
2022-12-08T00:51:21.806Z,99902.88
2022-12-08T00:56:23.524Z,99897.50
2022-12-08T01:01:25.153Z,99905.38
2022-12-08T01:06:26.712Z,99893.94
2022-12-08T01:11:28.845Z,99898.13
2022-12-08T01:16:33.941Z,99896.81
2022-12-08T01:21:36.380Z,99891.94
2022-12-08T01:26:38.312Z,99896.63
2022-12-08T01:31:40.059Z,99895.13
2022-12-08T01:36:42.223Z,99900.16
2022-12-08T01:41:45.370Z,99902.66
2022-12-08T01:46:49.882Z,99899.31
2022-12-08T01:51:59.074Z,99898.09
2022-12-08T01:57:15.188Z,99895.41
2022-12-08T02:02:17.157Z,99887.00
2022-12-08T02:07:18.956Z,99882.31
2022-12-08T02:12:20.765Z,99875.94
2022-12-08T02:17:49.536Z,99871.41
2022-12-08T02:23:28.638Z,99867.34
2022-12-08T02:28:52.829Z,99858.78
2022-12-08T02:34:16.135Z,99866.00
2022-12-08T02:39:27.131Z,99857.28
2022-12-08T02:44:35.158Z,99858.31
2022-12-08T02:49:36.750Z,99850.09
2022-12-08T02:54:50.668Z,99841.16
2022-12-08T03:00:16.994Z,99830.75
2022-12-08T03:05:27.341Z,99821.59
2022-12-08T03:10:37.681Z,99824.09
2022-12-08T03:15:41.657Z,99821.41
2022-12-08T03:20:46.393Z,99822.91
2022-12-08T03:25:56.795Z,99823.06
2022-12-08T03:31:03.011Z,99826.78
2022-12-08T03:36:08.925Z,99833.69
2022-12-08T03:41:20.056Z,99822.41
2022-12-08T03:51:24.704Z,99811.97
2022-12-08T03:56:32.789Z,99810.56
2022-12-08T04:01:34.463Z,99801.78
2022-12-08T04:06:36.146Z,99796.88
2022-12-08T04:11:37.758Z,99795.03
2022-12-08T04:16:39.381Z,99805.97
2022-12-08T04:21:41.110Z,99805.13
2022-12-08T04:26:42.655Z,99810.88
2022-12-08T04:31:44.753Z,99807.03
2022-12-08T04:36:48.517Z,99804.22
2022-12-08T04:41:50.109Z,99801.88
2022-12-08T04:46:51.756Z,99802.78
2022-12-08T04:51:53.355Z,99811.75
2022-12-08T04:56:55.070Z,99801.53
2022-12-08T05:01:56.818Z,99791.41
2022-12-08T05:06:58.781Z,99784.69
2022-12-08T05:12:00.427Z,99783.88
2022-12-08T05:17:07.758Z,99801.66
2022-12-08T05:22:11.383Z,99791.91
2022-12-08T05:27:12.976Z,99780.31
2022-12-08T05:32:14.606Z,99773.09
2022-12-08T05:37:16.222Z,99771.59
2022-12-08T05:42:23.142Z,99765.69
2022-12-08T05:47:27.523Z,99768.75
2022-12-08T05:52:30.398Z,99751.59
2022-12-08T05:57:32.059Z,99752.44
2022-12-08T06:02:34.128Z,99755.13
2022-12-08T06:07:35.908Z,99758.16
2022-12-08T06:12:37.785Z,99759.31
2022-12-08T06:17:39.355Z,99758.97
2022-12-08T06:22:40.943Z,99760.00
2022-12-08T06:27:42.531Z,99770.06
2022-12-08T06:32:44.258Z,99769.53
2022-12-08T06:37:45.840Z,99765.50
2022-12-08T06:42:47.704Z,99767.50
2022-12-08T06:47:49.248Z,99765.66
2022-12-08T06:53:01.090Z,99768.16
2022-12-08T06:58:06.541Z,99780.25
2022-12-08T07:03:09.862Z,99786.81
2022-12-08T07:08:11.733Z,99787.47
2022-12-08T07:13:13.360Z,99776.34
2022-12-08T07:18:14.958Z,99788.28
2022-12-08T07:23:16.804Z,99789.75
2022-12-08T07:28:18.347Z,99786.94
2022-12-08T07:33:19.905Z,99794.94
2022-12-08T07:38:21.445Z,99804.66
2022-12-08T07:43:23.634Z,99810.06
2022-12-08T07:48:25.177Z,99808.00
2022-12-08T07:53:29.291Z,99803.44
2022-12-08T07:58:30.842Z,99789.03
2022-12-08T08:03:33.416Z,99795.28
2022-12-08T08:08:34.968Z,99788.88
2022-12-08T08:13:37.356Z,99786.59
2022-12-08T08:18:40.246Z,99778.09
2022-12-08T08:23:41.787Z,99788.66
2022-12-08T08:28:45.787Z,99793.31
2022-12-08T08:33:49.519Z,99789.34
2022-12-08T08:38:51.132Z,99795.41
2022-12-08T08:43:54.825Z,99801.09
2022-12-08T08:48:56.639Z,99801.41
2022-12-08T08:53:58.564Z,99795.66
2022-12-08T08:59:00.141Z,99788.34
2022-12-08T09:04:01.903Z,99793.47
2022-12-08T09:09:03.912Z,99797.06
2022-12-08T09:14:05.665Z,99802.19
2022-12-08T09:19:07.332Z,99798.56
2022-12-08T09:24:15.542Z,99809.28
2022-12-08T09:35:33.909Z,99833.00
2022-12-08T09:40:49.015Z,99831.19
2022-12-08T09:45:51.804Z,99841.03
2022-12-08T09:50:56.420Z,99846.13
2022-12-08T09:56:08.660Z,99860.84
2022-12-08T10:01:11.522Z,99865.94
2022-12-08T10:06:21.573Z,99861.56
2022-12-08T10:11:32.719Z,99863.38
2022-12-08T10:16:39.186Z,99861.78
2022-12-08T10:21:43.878Z,99868.34
2022-12-08T10:26:49.188Z,99896.38
2022-12-08T10:31:50.826Z,99914.59
2022-12-08T10:36:58.345Z,99949.06
2022-12-08T10:42:09.227Z,99986.81
2022-12-08T10:47:14.065Z,100002.53
2022-12-08T10:52:25.374Z,100022.13
2022-12-08T10:57:27.087Z,100027.59
2022-12-08T11:02:28.778Z,100036.19
2022-12-08T11:07:30.505Z,100054.59
2022-12-08T11:12:32.199Z,100078.03
2022-12-08T11:17:39.518Z,100091.19
2022-12-08T11:22:54.186Z,100113.56
2022-12-08T11:28:01.211Z,100135.09
2022-12-08T11:33:16.420Z,100149.31
2022-12-08T11:38:24.312Z,100160.16
2022-12-08T11:43:34.838Z,100167.25
2022-12-08T11:48:38.406Z,100173.13
2022-12-08T11:54:07.101Z,100176.38
2022-12-08T11:59:15.876Z,100143.94
2022-12-08T12:04:31.138Z,100119.94
2022-12-08T12:09:51.882Z,100116.88
2022-12-08T12:15:30.074Z,100098.31
2022-12-08T12:20:57.560Z,100104.25
2022-12-08T12:26:02.569Z,100103.84
2022-12-08T12:31:12.060Z,100083.34
2022-12-08T12:36:15.237Z,99972.31
2022-12-08T12:41:25.533Z,99927.97
2022-12-08T12:46:27.344Z,99899.31
2022-12-08T12:51:39.006Z,99889.09
2022-12-08T12:56:55.520Z,99861.72
2022-12-08T13:01:57.482Z,99831.81
2022-12-08T13:06:59.839Z,99821.78
2022-12-08T13:12:10.344Z,99807.53
2022-12-08T13:17:16.217Z,99799.59
2022-12-08T13:22:50.513Z,99796.69
2022-12-08T13:27:53.898Z,99779.34
2022-12-08T13:38:25.493Z,99762.47
2022-12-08T14:00:37.035Z,99696.03
2022-12-08T14:06:11.192Z,99683.72
2022-12-08T14:11:06.953Z,99683.94
2022-12-08T14:16:39.551Z,99678.09
2022-12-08T14:21:57.929Z,99663.03
2022-12-08T14:27:02.192Z,99661.59
2022-12-08T14:32:05.934Z,99662.41
2022-12-08T14:37:12.941Z,99652.19
2022-12-08T14:42:25.129Z,99661.78
2022-12-08T14:47:33.362Z,99654.03
2022-12-08T14:52:34.952Z,99647.13
2022-12-08T14:57:36.582Z,99642.28
2022-12-08T15:02:45.851Z,99643.53
2022-12-08T15:07:52.206Z,99639.97
2022-12-08T15:13:17.610Z,99624.94
2022-12-08T15:18:35.607Z,99622.41
2022-12-08T15:23:44.764Z,99623.88
2022-12-08T15:28:46.339Z,99613.81
2022-12-08T15:33:47.965Z,99613.41
2022-12-08T15:38:49.536Z,99603.59
2022-12-08T15:43:51.044Z,99603.13
2022-12-08T15:48:57.883Z,99598.97
2022-12-08T15:53:59.806Z,99594.78
2022-12-08T15:59:01.364Z,99588.91
2022-12-08T16:09:32.160Z,99586.75
2022-12-08T16:15:39.771Z,99579.84
2022-12-08T16:19:55.882Z,99570.22
2022-12-08T16:25:05.001Z,99563.28
2022-12-08T16:30:18.035Z,99550.81
2022-12-08T16:35:19.620Z,99548.09
2022-12-08T16:40:21.328Z,99547.91
2022-12-08T16:45:28.851Z,99537.91
2022-12-08T16:50:32.959Z,99533.13
2022-12-08T16:55:35.007Z,99529.75
2022-12-08T17:00:37.269Z,99529.91
2022-12-08T17:05:40.890Z,99525.31
2022-12-08T17:10:42.662Z,99511.34
2022-12-08T17:15:44.204Z,99512.56
2022-12-08T17:20:45.755Z,99501.31
2022-12-08T17:25:58.791Z,99505.25
2022-12-08T17:31:00.478Z,99505.97
2022-12-08T17:36:02.036Z,99502.81
2022-12-08T17:41:08.645Z,99498.22
2022-12-08T17:46:16.106Z,99487.09
2022-12-08T17:51:18.293Z,99484.66
2022-12-08T17:56:21.522Z,99480.72
2022-12-08T18:01:23.709Z,99475.56
2022-12-08T18:06:29.639Z,99475.47
2022-12-08T18:11:33.699Z,99467.13
2022-12-08T18:16:40.204Z,99478.94
2022-12-08T18:21:42.520Z,99468.38
2022-12-08T18:26:44.139Z,99469.66
2022-12-08T18:31:45.718Z,99463.41
2022-12-08T18:36:47.577Z,99464.00
2022-12-08T18:41:49.298Z,99451.78
2022-12-08T18:46:51.068Z,99448.44
2022-12-08T18:51:52.970Z,99449.88
2022-12-08T18:56:54.582Z,99443.28
2022-12-08T19:01:57.750Z,99443.69
2022-12-08T19:06:59.338Z,99442.47
2022-12-08T19:12:00.895Z,99444.09
2022-12-08T19:17:02.476Z,99446.75
2022-12-08T19:22:04.054Z,99453.84
2022-12-08T19:27:05.972Z,99441.94
2022-12-08T19:32:07.579Z,99441.00
2022-12-08T19:37:12.472Z,99441.50
2022-12-08T19:42:39.435Z,99423.22
2022-12-08T19:47:42.130Z,99422.22
2022-12-08T19:52:44.754Z,99421.53
2022-12-08T19:57:46.320Z,99414.75
2022-12-08T20:02:48.589Z,99415.31
2022-12-08T20:07:50.438Z,99419.25
2022-12-08T20:13:12.009Z,99411.34
2022-12-08T20:18:15.232Z,99421.06
2022-12-08T20:23:17.044Z,99417.75
2022-12-08T20:28:19.206Z,99432.00
2022-12-08T20:33:20.824Z,99415.91
2022-12-08T20:38:22.392Z,99400.84
2022-12-08T20:43:25.262Z,99410.88
2022-12-08T20:48:26.975Z,99404.31
2022-12-08T20:53:29.297Z,99398.53
2022-12-08T20:58:30.893Z,99397.78
2022-12-08T21:03:32.954Z,99390.59
2022-12-08T21:08:35.431Z,99393.69
2022-12-08T21:13:38.579Z,99395.09
2022-12-08T21:18:41.231Z,99391.56
2022-12-08T21:23:43.207Z,99386.56
2022-12-08T21:28:45.080Z,99379.72
2022-12-08T21:33:47.036Z,99371.56
2022-12-08T21:38:49.008Z,99366.94
2022-12-08T21:43:50.648Z,99362.34
2022-12-08T21:48:52.450Z,99365.00
2022-12-08T21:53:55.077Z,99364.78
2022-12-08T21:58:57.109Z,99365.00
2022-12-08T22:03:58.875Z,99365.16
2022-12-08T22:09:00.685Z,99365.59
2022-12-08T22:14:02.391Z,99365.28
2022-12-08T22:19:04.072Z,99356.94
2022-12-08T22:24:06.323Z,99369.81
2022-12-08T22:29:08.486Z,99363.63
2022-12-08T22:34:10.363Z,99353.72
2022-12-08T22:39:12.678Z,99349.69
2022-12-08T22:44:15.943Z,99354.50
2022-12-08T22:49:17.630Z,99349.03
2022-12-08T22:54:19.556Z,99348.22
2022-12-08T22:59:21.150Z,99332.50
2022-12-08T23:04:23.051Z,99327.16
2022-12-08T23:09:24.783Z,99314.94
2022-12-08T23:14:26.446Z,99315.44
2022-12-08T23:19:28.031Z,99317.47
2022-12-08T23:24:29.784Z,99298.84
2022-12-08T23:29:31.413Z,99290.81
2022-12-08T23:34:35.123Z,99297.69
2022-12-08T23:39:36.665Z,99280.66
2022-12-08T23:44:38.259Z,99274.28
2022-12-08T23:49:39.834Z,99268.59
2022-12-08T23:54:41.466Z,99261.41
2022-12-08T23:59:43.110Z,99262.09
